Darstellungsparameter: Aktuell verwendete Einstellungen:
Skalierung der Graphiken ... ?
xyx+y,   Skalierungsfaktor:      Skalierung: Modus: x, Faktor: 1
Darstellungszeitraum ... ?
Vom - - bis: - -   Zeitraum: 26.03.2011 - 28.03.2011
Min/Max/Avg-Anzeige ... ?
Zeige MMA aktuell
Zeige MMA Monat
Zeige MMA alles
Zeige --A aktuell
Zeige --A Monat
Zeige --A alles
Keine MMA-Anzeige
MMA:
Average (ber die Originaldaten)
MMA-Basis: 23.02.2003 - 29.09.2020
Quicknavigation für Darstellung... ?
Tage:      1T, 2T, 3T, 5T -1T -2T -3T -5T +1T +2T +3T +5T
Wochen: 1W, 2W, 3W -1W -2W -3W +1W +2W +3W
Monate: 1M, 3M, 6M -1M -3M -6M +1M +3M +6M
Jahre:    1J, 3J, 5J, 10J -1J -3J -5J -10J +1J +3J +5J +10J
Nutze für die Darstellung ... ?
Originaldaten oder Mittelwerte auf ...
Stundenbasis Tagesbasis Wochenbasis
Monatsbasis Jahresbasis      Datenbasis: Original-Daten
Darstellen als:
Statistik (Auto) Statistik J:M      Darstellung:
Zur Graphik,    zurück zur Übersicht aller Sensoren.
 
Tabellarische Datenbersicht: ?
 
Sensor: Nr:Datum:Temp:Abs-Feuchte:Windchill:Wind:
Aussen-T/F 1 26-03-2011 00:01:09 6.6 C 5.81 g/m*3 6.6 C 0 km/h
2 26-03-2011 00:13:09 5.7 C 5.48 g/m*3 5.7 C 0 km/h
3 26-03-2011 00:25:09 5.3 C 5.48 g/m*3 5.3 C 0 km/h
4 26-03-2011 00:37:09 5.2 C 5.58 g/m*3 5.2 C 0 km/h
5 26-03-2011 00:49:10 5 C 5.57 g/m*3 5 C 0 km/h
6 26-03-2011 01:01:10 4.6 C 5.56 g/m*3 4.6 C 0 km/h
7 26-03-2011 01:13:10 4.8 C 5.7 g/m*3 4.8 C 0 km/h
8 26-03-2011 01:25:10 5.7 C 6.05 g/m*3 5.7 C 0 km/h
9 26-03-2011 01:37:10 5.7 C 5.98 g/m*3 5.7 C 0 km/h
10 26-03-2011 01:49:10 5.4 C 5.72 g/m*3 5.4 C 0 km/h
11 26-03-2011 02:01:10 4.7 C 5.53 g/m*3 4.7 C 0 km/h
12 26-03-2011 02:13:10 4.7 C 5.6 g/m*3 4.7 C 0 km/h
13 26-03-2011 02:25:10 4.8 C 5.7 g/m*3 4.8 C 0 km/h
14 26-03-2011 02:37:10 4.6 C 5.62 g/m*3 4.6 C 0 km/h
15 26-03-2011 02:49:10 4.3 C 5.51 g/m*3 4.3 C 0 km/h
16 26-03-2011 03:01:10 3.9 C 5.43 g/m*3 3.9 C 0 km/h
17 26-03-2011 03:13:10 4.1 C 5.5 g/m*3 4.1 C 0 km/h
18 26-03-2011 03:25:10 3.3 C 5.28 g/m*3 3.3 C 0 km/h
19 26-03-2011 03:37:10 3.6 C 5.45 g/m*3 3.6 C 0 km/h
20 26-03-2011 03:49:10 4.8 C 5.97 g/m*3 4.8 C 0 km/h
21 26-03-2011 04:01:10 4.5 C 5.78 g/m*3 4.5 C 0 km/h
22 26-03-2011 04:13:10 3.9 C 5.56 g/m*3 3.9 C 0 km/h
23 26-03-2011 04:25:10 4.2 C 5.67 g/m*3 4.2 C 0 km/h
24 26-03-2011 04:37:10 4.5 C 5.78 g/m*3 4.5 C 0 km/h
25 26-03-2011 04:49:11 5.1 C 5.95 g/m*3 5.1 C 0 km/h
Sensor: Nr:Datum:Temp:Abs-Feuchte:Windchill:Wind:
Aussen-T/F 26 26-03-2011 05:01:11 4.9 C 5.74 g/m*3 4.9 C 0 km/h
27 26-03-2011 05:13:11 5 C 5.64 g/m*3 5 C 0 km/h
28 26-03-2011 05:25:11 4.8 C 5.57 g/m*3 4.8 C 0 km/h
29 26-03-2011 05:37:11 4.8 C 5.57 g/m*3 4.8 C 0 km/h
30 26-03-2011 05:49:11 4.8 C 5.5 g/m*3 4.8 C 0 km/h
31 26-03-2011 06:01:11 4.8 C 5.5 g/m*3 4.8 C 0 km/h
32 26-03-2011 06:13:11 4.8 C 5.5 g/m*3 4.8 C 0 km/h
33 26-03-2011 06:25:11 4.8 C 5.5 g/m*3 4.8 C 0 km/h
34 26-03-2011 06:37:11 4.8 C 5.5 g/m*3 4.8 C 0 km/h
35 26-03-2011 06:49:11 5.1 C 5.54 g/m*3 5.1 C 0 km/h
36 26-03-2011 07:01:11 5.3 C 5.54 g/m*3 5.3 C 0 km/h
37 26-03-2011 07:13:11 5.5 C 5.55 g/m*3 5.5 C 0 km/h
38 26-03-2011 07:25:11 5.6 C 5.51 g/m*3 5.6 C 0 km/h
39 26-03-2011 07:37:11 5.8 C 5.59 g/m*3 5.8 C 0 km/h
40 26-03-2011 07:49:03 6 C 5.52 g/m*3 6 C 0 km/h
41 26-03-2011 08:01:02 5.7 C 5.48 g/m*3 5.7 C 0 km/h
42 26-03-2011 08:13:02 5.7 C 5.55 g/m*3 5.7 C 0 km/h
43 26-03-2011 08:25:03 6 C 5.59 g/m*3 6 C 0 km/h
44 26-03-2011 08:37:02 6.4 C 5.74 g/m*3 6.4 C 0 km/h
45 26-03-2011 08:49:02 7.8 C 5.96 g/m*3 7.8 C 0 km/h
46 26-03-2011 09:01:02 8.8 C 5.74 g/m*3 8.8 C 0 km/h
47 26-03-2011 09:13:02 9.1 C 5.41 g/m*3 9.1 C 0 km/h
48 26-03-2011 09:25:02 8.5 C 5.29 g/m*3 8.5 C 0 km/h
49 26-03-2011 09:37:02 9.3 C 5.12 g/m*3 9.3 C 0 km/h
50 26-03-2011 09:49:02 8.7 C 5.02 g/m*3 8.7 C 0 km/h
Sensor: Nr:Datum:Temp:Abs-Feuchte:Windchill:Wind:
Aussen-T/F 51 26-03-2011 10:01:02 9.2 C 4.91 g/m*3 9.2 C 0 km/h
52 26-03-2011 10:13:02 9 C 4.76 g/m*3 9 C 0 km/h
53 26-03-2011 10:25:02 9.2 C 4.64 g/m*3 9.2 C 0 km/h
54 26-03-2011 10:37:02 9.1 C 4.44 g/m*3 9.1 C 0 km/h
55 26-03-2011 10:49:02 9.3 C 4.22 g/m*3 9.3 C 0 km/h
56 26-03-2011 11:01:03 10 C 4.23 g/m*3 10 C 0 km/h
57 26-03-2011 11:13:03 10.1 C 3.88 g/m*3 10.1 C 0 km/h
58 26-03-2011 11:25:02 9.9 C 3.83 g/m*3 9.9 C 0 km/h
59 26-03-2011 11:37:02 11.1 C 3.83 g/m*3 11.1 C 0 km/h
60 26-03-2011 11:49:02 11.7 C 3.77 g/m*3 11.7 C 0 km/h
61 26-03-2011 12:01:02 11.8 C 3.68 g/m*3 11.8 C 0 km/h
62 26-03-2011 12:13:02 12.4 C 3.5 g/m*3 12.4 C 0 km/h
63 26-03-2011 12:25:01 11.9 C 3.39 g/m*3 11.9 C 0 km/h
64 26-03-2011 12:37:02 12 C 3.2 g/m*3 12 C 0 km/h
65 26-03-2011 12:49:02 14.7 C 3.27 g/m*3 14.7 C 0 km/h
66 26-03-2011 13:01:02 13.4 C 2.91 g/m*3 13.4 C 0 km/h
67 26-03-2011 13:13:02 13.3 C 3.23 g/m*3 13.3 C 0 km/h
68 26-03-2011 13:25:02 13.4 C 3.49 g/m*3 13.4 C 0 km/h
69 26-03-2011 13:37:02 13.4 C 3.25 g/m*3 13.4 C 0 km/h
70 26-03-2011 13:49:02 13.2 C 3.33 g/m*3 13.2 C 0 km/h
71 26-03-2011 14:01:02 13 C 3.4 g/m*3 13 C 0 km/h
72 26-03-2011 14:13:02 13.2 C 3.21 g/m*3 13.2 C 0 km/h
73 26-03-2011 14:25:02 14.2 C 3.17 g/m*3 14.2 C 0 km/h
74 26-03-2011 14:37:02 15.9 C 2.71 g/m*3 15.9 C 0 km/h
75 26-03-2011 14:49:01 16.6 C 2.83 g/m*3 16.6 C 0 km/h
Sensor: Nr:Datum:Temp:Abs-Feuchte:Windchill:Wind:
Aussen-T/F 76 26-03-2011 15:01:02 14.7 C 2.77 g/m*3 14.7 C 0 km/h
77 26-03-2011 15:13:02 15.1 C 2.71 g/m*3 15.1 C 0 km/h
78 26-03-2011 15:25:01 16.5 C 2.81 g/m*3 16.5 C 0 km/h
79 26-03-2011 15:37:01 15.7 C 3.21 g/m*3 15.7 C 0 km/h
80 26-03-2011 15:49:01 14.6 C 3.25 g/m*3 14.6 C 0 km/h
81 26-03-2011 16:01:02 13.3 C 3.23 g/m*3 13.3 C 0 km/h
82 26-03-2011 16:13:02 13 C 3.4 g/m*3 13 C 0 km/h
83 26-03-2011 16:25:01 12.7 C 3.45 g/m*3 12.7 C 0 km/h
84 26-03-2011 16:37:02 12.3 C 3.47 g/m*3 12.3 C 0 km/h
85 26-03-2011 16:49:01 12 C 3.73 g/m*3 12 C 0 km/h
86 26-03-2011 17:01:02 11.6 C 3.74 g/m*3 11.6 C 0 km/h
87 26-03-2011 17:13:02 11.5 C 3.93 g/m*3 11.5 C 0 km/h
88 26-03-2011 17:25:01 11.1 C 3.83 g/m*3 11.1 C 0 km/h
89 26-03-2011 17:37:02 10.8 C 3.95 g/m*3 10.8 C 0 km/h
90 26-03-2011 17:49:01 10.5 C 3.88 g/m*3 10.5 C 0 km/h
91 26-03-2011 18:01:02 10.3 C 3.93 g/m*3 10.3 C 0 km/h
92 26-03-2011 18:13:02 10 C 4.04 g/m*3 10 C 0 km/h
93 26-03-2011 18:25:02 9.5 C 4.01 g/m*3 9.5 C 0 km/h
94 26-03-2011 18:37:01 8.9 C 4.29 g/m*3 8.9 C 0 km/h
95 26-03-2011 18:49:01 8.3 C 4.3 g/m*3 8.3 C 0 km/h
96 26-03-2011 19:01:02 8 C 4.38 g/m*3 8 C 0 km/h
97 26-03-2011 19:13:02 8.1 C 4.41 g/m*3 8.1 C 0 km/h
98 26-03-2011 19:25:02 8.2 C 4.44 g/m*3 8.2 C 0 km/h
99 26-03-2011 19:37:01 7.8 C 4.49 g/m*3 7.8 C 0 km/h
100 26-03-2011 19:49:02 7.9 C 4.52 g/m*3 7.9 C 0 km/h
Sensor: Nr:Datum:Temp:Abs-Feuchte:Windchill:Wind:
Aussen-T/F 101 26-03-2011 20:01:01 7.2 C 4.47 g/m*3 7.2 C 0 km/h
102 26-03-2011 20:13:01 6.7 C 4.48 g/m*3 6.7 C 0 km/h
103 26-03-2011 20:25:02 6.7 C 4.56 g/m*3 6.7 C 0 km/h
104 26-03-2011 20:37:01 6.6 C 4.53 g/m*3 6.6 C 0 km/h
105 26-03-2011 20:49:02 6.5 C 4.65 g/m*3 6.5 C 0 km/h
106 26-03-2011 21:01:02 6.5 C 4.65 g/m*3 6.5 C 0 km/h
107 26-03-2011 21:13:02 6.3 C 4.66 g/m*3 6.3 C 0 km/h
108 26-03-2011 21:25:02 6.2 C 4.78 g/m*3 6.2 C 0 km/h
109 26-03-2011 21:37:02 5.9 C 4.76 g/m*3 5.9 C 0 km/h
110 26-03-2011 21:49:02 5.7 C 4.77 g/m*3 5.7 C 0 km/h
111 26-03-2011 22:01:02 5.7 C 4.77 g/m*3 5.7 C 0 km/h
112 26-03-2011 22:13:02 5.7 C 4.84 g/m*3 5.7 C 0 km/h
113 26-03-2011 22:26:02 5.4 C 4.74 g/m*3 5.4 C 0 km/h
114 26-03-2011 22:38:02 5.6 C 4.88 g/m*3 5.6 C 0 km/h
115 26-03-2011 22:50:02 5.8 C 4.94 g/m*3 5.8 C 0 km/h
116 26-03-2011 23:02:03 5.6 C 4.88 g/m*3 5.6 C 0 km/h
117 26-03-2011 23:14:03 5.5 C 4.92 g/m*3 5.5 C 0 km/h
118 26-03-2011 23:26:03 5.4 C 4.81 g/m*3 5.4 C 0 km/h
119 26-03-2011 23:38:03 5.1 C 4.79 g/m*3 5.1 C 0 km/h
120 26-03-2011 23:50:03 5 C 4.82 g/m*3 5 C 0 km/h
121 27-03-2011 00:02:03 5 C 4.89 g/m*3 5 C 0 km/h
122 27-03-2011 00:14:03 5.1 C 4.92 g/m*3 5.1 C 0 km/h
123 27-03-2011 00:26:03 5.1 C 4.92 g/m*3 5.1 C 0 km/h
124 27-03-2011 00:38:03 5.1 C 4.92 g/m*3 5.1 C 0 km/h
125 27-03-2011 00:50:03 5 C 4.89 g/m*3 5 C 0 km/h
Sensor: Nr:Datum:Temp:Abs-Feuchte:Windchill:Wind:
Aussen-T/F 126 27-03-2011 01:02:03 4.8 C 4.9 g/m*3 4.8 C 0 km/h
127 27-03-2011 01:14:03 4.8 C 4.9 g/m*3 4.8 C 0 km/h
128 27-03-2011 01:26:03 4.8 C 4.96 g/m*3 4.8 C 0 km/h
129 27-03-2011 01:38:03 5.2 C 4.96 g/m*3 5.2 C 0 km/h
130 27-03-2011 01:50:03 5.3 C 4.99 g/m*3 5.3 C 0 km/h
131 27-03-2011 02:02:03 5.2 C 4.89 g/m*3 5.2 C 0 km/h
132 27-03-2011 02:14:03 4.6 C 4.76 g/m*3 4.6 C 0 km/h
133 27-03-2011 02:26:03 4.5 C 4.86 g/m*3 4.5 C 0 km/h
134 27-03-2011 02:38:03 4.7 C 4.93 g/m*3 4.7 C 0 km/h
135 27-03-2011 02:50:03 5.1 C 4.92 g/m*3 5.1 C 0 km/h
136 27-03-2011 04:02:03 5 C 4.82 g/m*3 5 C 0 km/h
137 27-03-2011 04:14:04 5 C 4.82 g/m*3 5 C 0 km/h
138 27-03-2011 04:26:04 5 C 4.82 g/m*3 5 C 0 km/h
139 27-03-2011 04:38:04 4.8 C 4.83 g/m*3 4.8 C 0 km/h
140 27-03-2011 04:50:04 4.6 C 4.76 g/m*3 4.6 C 0 km/h
141 27-03-2011 05:02:04 4.5 C 4.8 g/m*3 4.5 C 0 km/h
142 27-03-2011 05:14:04 4.7 C 4.86 g/m*3 4.7 C 0 km/h
143 27-03-2011 05:26:04 4.8 C 4.9 g/m*3 4.8 C 0 km/h
144 27-03-2011 05:38:04 4.8 C 4.9 g/m*3 4.8 C 0 km/h
145 27-03-2011 05:50:04 4.6 C 4.83 g/m*3 4.6 C 0 km/h
146 27-03-2011 06:02:04 4.4 C 4.7 g/m*3 4.4 C 0 km/h
147 27-03-2011 06:14:04 4.4 C 4.77 g/m*3 4.4 C 0 km/h
148 27-03-2011 06:26:04 4.4 C 4.77 g/m*3 4.4 C 0 km/h
149 27-03-2011 06:38:04 4.4 C 4.77 g/m*3 4.4 C 0 km/h
150 27-03-2011 06:50:04 4.4 C 4.77 g/m*3 4.4 C 0 km/h
Sensor: Nr:Datum:Temp:Abs-Feuchte:Windchill:Wind:
Aussen-T/F 151 27-03-2011 07:02:04 4.4 C 4.77 g/m*3 4.4 C 0 km/h
152 27-03-2011 07:14:04 4 C 4.64 g/m*3 4 C 0 km/h
153 27-03-2011 07:26:04 4.2 C 4.77 g/m*3 4.2 C 0 km/h
154 27-03-2011 07:38:04 4.6 C 4.83 g/m*3 4.6 C 0 km/h
155 27-03-2011 07:50:04 4.8 C 4.9 g/m*3 4.8 C 0 km/h
156 27-03-2011 08:02:04 5.1 C 4.86 g/m*3 5.1 C 0 km/h
157 27-03-2011 08:14:05 5.2 C 4.82 g/m*3 5.2 C 0 km/h
158 27-03-2011 08:26:05 5.5 C 4.85 g/m*3 5.5 C 0 km/h
159 27-03-2011 08:38:05 5.9 C 4.76 g/m*3 5.9 C 0 km/h
160 27-03-2011 08:50:02 6.1 C 4.6 g/m*3 6.1 C 0 km/h
161 27-03-2011 09:02:01 6.5 C 4.65 g/m*3 6.5 C 0 km/h
162 27-03-2011 09:14:01 6.9 C 4.7 g/m*3 6.9 C 0 km/h
163 27-03-2011 09:26:02 7.2 C 4.55 g/m*3 7.2 C 0 km/h
164 27-03-2011 09:38:02 7.3 C 4.58 g/m*3 7.3 C 0 km/h
165 27-03-2011 09:50:02 7.9 C 4.6 g/m*3 7.9 C 0 km/h
166 27-03-2011 10:02:03 8 C 4.55 g/m*3 8 C 0 km/h
167 27-03-2011 10:14:03 8.2 C 4.35 g/m*3 8.2 C 0 km/h
168 27-03-2011 10:26:03 8 C 4.46 g/m*3 8 C 0 km/h
169 27-03-2011 10:38:03 8.8 C 4.53 g/m*3 8.8 C 0 km/h
170 27-03-2011 10:50:01 8.7 C 4.5 g/m*3 8.7 C 0 km/h
171 27-03-2011 11:02:02 9.4 C 4.52 g/m*3 9.4 C 0 km/h
172 27-03-2011 11:14:02 10.1 C 4.44 g/m*3 10.1 C 0 km/h
173 27-03-2011 11:26:01 10.3 C 4.41 g/m*3 10.3 C 0 km/h
174 27-03-2011 11:38:01 10.3 C 4.41 g/m*3 10.3 C 0 km/h
175 27-03-2011 11:50:01 10 C 4.32 g/m*3 10 C 0 km/h
Sensor: Nr:Datum:Temp:Abs-Feuchte:Windchill:Wind:
Aussen-T/F 176 27-03-2011 12:02:02 10.9 C 4.48 g/m*3 10.9 C 0 km/h
177 27-03-2011 12:14:03 11.2 C 4.26 g/m*3 11.2 C 0 km/h
178 27-03-2011 12:26:01 11.7 C 4.5 g/m*3 11.7 C 0 km/h
179 27-03-2011 12:38:02 11.2 C 4.26 g/m*3 11.2 C 0 km/h
180 27-03-2011 12:50:01 11.6 C 4.47 g/m*3 11.6 C 0 km/h
181 27-03-2011 13:02:02 12.1 C 4.5 g/m*3 12.1 C 0 km/h
182 27-03-2011 13:14:02 12.6 C 4.54 g/m*3 12.6 C 0 km/h
183 27-03-2011 13:26:02 13.7 C 4.5 g/m*3 13.7 C 0 km/h
184 27-03-2011 13:38:02 14.6 C 4.63 g/m*3 14.6 C 0 km/h
185 27-03-2011 13:50:02 17.5 C 4.62 g/m*3 17.5 C 0 km/h
186 27-03-2011 14:02:02 16.2 C 4.14 g/m*3 16.2 C 0 km/h
187 27-03-2011 14:14:02 16 C 4.36 g/m*3 16 C 0 km/h
188 27-03-2011 14:26:02 15.4 C 4.07 g/m*3 15.4 C 0 km/h
189 27-03-2011 14:38:01 15.8 C 4.17 g/m*3 15.8 C 0 km/h
190 27-03-2011 14:50:02 15.9 C 4.06 g/m*3 15.9 C 0 km/h
191 27-03-2011 15:02:01 17.7 C 3.92 g/m*3 17.7 C 0 km/h
192 27-03-2011 15:14:01 17.8 C 3.95 g/m*3 17.8 C 0 km/h
193 27-03-2011 15:26:02 18.5 C 3.96 g/m*3 18.5 C 0 km/h
194 27-03-2011 15:38:01 20.3 C 3.52 g/m*3 20.3 C 0 km/h
195 27-03-2011 15:50:02 20 C 3.46 g/m*3 20 C 0 km/h
196 27-03-2011 16:02:02 20.4 C 3.54 g/m*3 20.4 C 0 km/h
197 27-03-2011 16:14:02 17.9 C 3.05 g/m*3 17.9 C 0 km/h
198 27-03-2011 16:26:02 20.4 C 3.54 g/m*3 20.4 C 0 km/h
199 27-03-2011 16:38:03 21.1 C 3.69 g/m*3 21.1 C 0 km/h
200 27-03-2011 16:50:02 20 C 3.46 g/m*3 20 C 0 km/h
Sensor: Nr:Datum:Temp:Abs-Feuchte:Windchill:Wind:
Aussen-T/F 201 27-03-2011 17:02:02 19.8 C 3.42 g/m*3 19.8 C 0 km/h
202 27-03-2011 17:14:02 19.7 C 3.4 g/m*3 19.7 C 0 km/h
203 27-03-2011 17:26:02 18.3 C 3.13 g/m*3 18.3 C 0 km/h
204 27-03-2011 17:38:02 16 C 3.68 g/m*3 16 C 0 km/h
205 27-03-2011 17:50:02 15.2 C 3.76 g/m*3 15.2 C 0 km/h
206 27-03-2011 18:02:02 14.8 C 4.05 g/m*3 14.8 C 0 km/h
207 27-03-2011 18:14:02 15.4 C 3.94 g/m*3 15.4 C 0 km/h
208 27-03-2011 18:26:02 15.2 C 4.02 g/m*3 15.2 C 0 km/h
209 27-03-2011 18:38:02 15.8 C 4.04 g/m*3 15.8 C 0 km/h
210 27-03-2011 18:50:01 16.1 C 3.84 g/m*3 16.1 C 0 km/h
211 27-03-2011 19:02:02 15.4 C 4.07 g/m*3 15.4 C 0 km/h
212 27-03-2011 19:14:02 12.7 C 4.79 g/m*3 12.7 C 0 km/h
213 27-03-2011 19:26:01 11.4 C 4.82 g/m*3 11.4 C 0 km/h
214 27-03-2011 19:38:02 11.3 C 4.79 g/m*3 11.3 C 0 km/h
215 27-03-2011 19:50:02 11 C 4.7 g/m*3 11 C 0 km/h
216 27-03-2011 20:02:02 10.2 C 4.76 g/m*3 10.2 C 0 km/h
217 27-03-2011 20:14:02 9.3 C 4.67 g/m*3 9.3 C 0 km/h
218 27-03-2011 20:26:01 8.9 C 4.82 g/m*3 8.9 C 0 km/h
219 27-03-2011 20:38:02 8.4 C 4.75 g/m*3 8.4 C 0 km/h
220 27-03-2011 20:50:02 8.5 C 5.04 g/m*3 8.5 C 0 km/h
221 27-03-2011 21:02:02 8.2 C 5.02 g/m*3 8.2 C 0 km/h
222 27-03-2011 21:14:03 7.7 C 4.87 g/m*3 7.7 C 0 km/h
223 27-03-2011 21:26:02 8.3 C 5.06 g/m*3 8.3 C 0 km/h
224 27-03-2011 21:38:02 7.5 C 4.88 g/m*3 7.5 C 0 km/h
225 27-03-2011 21:50:02 7.2 C 4.95 g/m*3 7.2 C 0 km/h
Sensor: Nr:Datum:Temp:Abs-Feuchte:Windchill:Wind:
Aussen-T/F 226 27-03-2011 22:03:04 7.6 C 5.16 g/m*3 7.6 C 0 km/h
227 27-03-2011 22:15:04 7.8 C 5.22 g/m*3 7.8 C 0 km/h
228 27-03-2011 22:27:04 7.8 C 4.98 g/m*3 7.8 C 0 km/h
229 27-03-2011 22:39:04 8 C 4.8 g/m*3 8 C 0 km/h
230 27-03-2011 22:51:04 7.5 C 4.8 g/m*3 7.5 C 0 km/h
231 27-03-2011 23:03:04 7 C 5.04 g/m*3 7 C 0 km/h
232 27-03-2011 23:15:04 7.3 C 5.14 g/m*3 7.3 C 0 km/h
233 27-03-2011 23:27:04 7 C 5.19 g/m*3 7 C 0 km/h
234 27-03-2011 23:39:04 6.1 C 4.97 g/m*3 6.1 C 0 km/h
235 27-03-2011 23:51:04 6.1 C 5.19 g/m*3 6.1 C 0 km/h
236 28-03-2011 00:03:04 6 C 5.15 g/m*3 6 C 0 km/h
237 28-03-2011 00:15:04 5.6 C 5.02 g/m*3 5.6 C 0 km/h
238 28-03-2011 00:27:04 5.4 C 5.16 g/m*3 5.4 C 0 km/h
239 28-03-2011 00:39:04 5.4 C 5.23 g/m*3 5.4 C 0 km/h
240 28-03-2011 00:51:05 4.9 C 5.06 g/m*3 4.9 C 0 km/h
241 28-03-2011 01:03:05 4.3 C 4.86 g/m*3 4.3 C 0 km/h
242 28-03-2011 01:15:05 4 C 4.9 g/m*3 4 C 0 km/h
243 28-03-2011 01:27:05 4 C 5.02 g/m*3 4 C 0 km/h
244 28-03-2011 01:39:05 4.2 C 5.22 g/m*3 4.2 C 0 km/h
245 28-03-2011 01:51:05 3.5 C 4.98 g/m*3 3.5 C 0 km/h
246 28-03-2011 02:03:05 3.2 C 4.94 g/m*3 3.2 C 0 km/h
247 28-03-2011 02:15:05 2.8 C 4.87 g/m*3 2.8 C 0 km/h
248 28-03-2011 02:27:05 2.9 C 4.96 g/m*3 2.9 C 0 km/h
249 28-03-2011 02:39:05 2.6 C 4.86 g/m*3 2.6 C 0 km/h
250 28-03-2011 02:51:05 2.5 C 4.83 g/m*3 2.5 C 0 km/h
Sensor: Nr:Datum:Temp:Abs-Feuchte:Windchill:Wind:
Aussen-T/F 251 28-03-2011 03:03:05 2.3 C 4.82 g/m*3 2.3 C 0 km/h
252 28-03-2011 03:15:05 2.3 C 4.82 g/m*3 2.3 C 0 km/h
253 28-03-2011 03:27:05 2.1 C 4.81 g/m*3 2.1 C 0 km/h
254 28-03-2011 03:39:05 2.1 C 4.81 g/m*3 2.1 C 0 km/h
255 28-03-2011 03:51:05 1.9 C 4.8 g/m*3 1.9 C 0 km/h
256 28-03-2011 04:03:05 2.8 C 5.16 g/m*3 2.8 C 0 km/h
257 28-03-2011 04:15:05 3 C 5.23 g/m*3 3 C 0 km/h
258 28-03-2011 04:27:05 2.8 C 5.16 g/m*3 2.8 C 0 km/h
259 28-03-2011 04:39:05 2.5 C 5 g/m*3 2.5 C 0 km/h
260 28-03-2011 04:51:05 2.3 C 4.93 g/m*3 2.3 C 0 km/h
261 28-03-2011 05:03:06 2.2 C 4.9 g/m*3 2.2 C 0 km/h
262 28-03-2011 05:15:06 2.2 C 4.96 g/m*3 2.2 C 0 km/h
263 28-03-2011 05:27:06 1.9 C 4.86 g/m*3 1.9 C 0 km/h
264 28-03-2011 05:39:06 1.6 C 4.81 g/m*3 1.6 C 0 km/h
265 28-03-2011 05:51:06 1.3 C 4.72 g/m*3 1.3 C 0 km/h
266 28-03-2011 06:03:06 1.3 C 4.72 g/m*3 1.3 C 0 km/h
267 28-03-2011 06:15:06 1.1 C 4.65 g/m*3 1.1 C 0 km/h
268 28-03-2011 06:27:06 1.3 C 4.72 g/m*3 1.3 C 0 km/h
269 28-03-2011 06:39:06 1.1 C 4.65 g/m*3 1.1 C 0 km/h
270 28-03-2011 06:51:06 0.9 C 4.64 g/m*3 0.9 C 0 km/h
271 28-03-2011 07:03:03 0.8 C 4.61 g/m*3 0.8 C 0 km/h
272 28-03-2011 07:15:03 0.9 C 4.64 g/m*3 0.9 C 0 km/h
273 28-03-2011 07:27:03 0.7 C 4.63 g/m*3 0.7 C 0 km/h
274 28-03-2011 07:39:04 0.4 C 4.53 g/m*3 0.4 C 0 km/h
275 28-03-2011 07:51:02 0.3 C 4.5 g/m*3 0.3 C 0 km/h
Sensor: Nr:Datum:Temp:Abs-Feuchte:Windchill:Wind:
Aussen-T/F 276 28-03-2011 08:03:02 0.5 C 4.56 g/m*3 0.5 C 0 km/h
277 28-03-2011 08:15:02 0.8 C 4.66 g/m*3 0.8 C 0 km/h
278 28-03-2011 08:27:02 1.3 C 4.82 g/m*3 1.3 C 0 km/h
279 28-03-2011 08:39:02 1.2 C 4.79 g/m*3 1.2 C 0 km/h
280 28-03-2011 08:51:02 1.9 C 5.02 g/m*3 1.9 C 0 km/h
281 28-03-2011 09:03:02 1.9 C 5.02 g/m*3 1.9 C 0 km/h
282 28-03-2011 09:15:02 2.2 C 5.07 g/m*3 2.2 C 0 km/h
283 28-03-2011 09:27:02 2.4 C 5.14 g/m*3 2.4 C 0 km/h
284 28-03-2011 09:39:02 2.6 C 5.21 g/m*3 2.6 C 0 km/h
285 28-03-2011 09:51:02 3 C 5.29 g/m*3 3 C 0 km/h
286 28-03-2011 10:03:02 3.2 C 5.36 g/m*3 3.2 C 0 km/h
287 28-03-2011 10:15:02 4 C 5.59 g/m*3 4 C 0 km/h
288 28-03-2011 10:27:02 4.2 C 5.61 g/m*3 4.2 C 0 km/h
289 28-03-2011 10:39:02 5.3 C 5.54 g/m*3 5.3 C 0 km/h
290 28-03-2011 10:51:02 6.6 C 5.21 g/m*3 6.6 C 0 km/h
291 28-03-2011 11:03:02 7.3 C 4.82 g/m*3 7.3 C 0 km/h
292 28-03-2011 11:15:02 7.9 C 4.52 g/m*3 7.9 C 0 km/h
293 28-03-2011 11:27:03 8.5 C 4.44 g/m*3 8.5 C 0 km/h
294 28-03-2011 11:39:01 9.3 C 3.86 g/m*3 9.3 C 0 km/h
295 28-03-2011 11:51:02 10 C 3.95 g/m*3 10 C 0 km/h
296 28-03-2011 12:03:01 10.4 C 3.76 g/m*3 10.4 C 0 km/h
297 28-03-2011 12:15:01 11 C 3.4 g/m*3 11 C 0 km/h
298 28-03-2011 12:27:01 11 C 3.3 g/m*3 11 C 0 km/h
299 28-03-2011 12:39:02 11.8 C 3.47 g/m*3 11.8 C 0 km/h
300 28-03-2011 12:51:02 12.2 C 3.24 g/m*3 12.2 C 0 km/h
Sensor: Nr:Datum:Temp:Abs-Feuchte:Windchill:Wind:
Aussen-T/F 301 28-03-2011 13:03:02 12.4 C 3.17 g/m*3 12.4 C 0 km/h
302 28-03-2011 13:15:02 13.2 C 3.33 g/m*3 13.2 C 0 km/h
303 28-03-2011 13:27:02 13.7 C 2.96 g/m*3 13.7 C 0 km/h
304 28-03-2011 13:39:02 14 C 3.02 g/m*3 14 C 0 km/h
305 28-03-2011 13:51:01 16.1 C 2.74 g/m*3 16.1 C 0 km/h
306 28-03-2011 14:03:02 14.6 C 2.5 g/m*3 14.6 C 0 km/h
307 28-03-2011 14:15:01 14.9 C 2.55 g/m*3 14.9 C 0 km/h
308 28-03-2011 14:27:01 14.3 C 2.46 g/m*3 14.3 C 0 km/h
309 28-03-2011 14:39:01 14.1 C 2.43 g/m*3 14.1 C 0 km/h
310 28-03-2011 14:51:01 15 C 2.56 g/m*3 15 C 0 km/h
311 28-03-2011 15:03:02 16 C 2.72 g/m*3 16 C 0 km/h
312 28-03-2011 15:15:01 16.2 C 2.76 g/m*3 16.2 C 0 km/h
313 28-03-2011 15:27:01 16.6 C 2.83 g/m*3 16.6 C 0 km/h
314 28-03-2011 15:39:01 20.1 C 3.48 g/m*3 20.1 C 0 km/h
315 28-03-2011 15:51:01 17.2 C 2.93 g/m*3 17.2 C 0 km/h
316 28-03-2011 16:03:01 18.9 C 3.24 g/m*3 18.9 C 0 km/h
317 28-03-2011 16:15:02 19.4 C 3.34 g/m*3 19.4 C 0 km/h
318 28-03-2011 16:27:02 19.7 C 3.4 g/m*3 19.7 C 0 km/h
319 28-03-2011 16:39:01 18.3 C 3.13 g/m*3 18.3 C 0 km/h
320 28-03-2011 16:51:02 18.4 C 3.15 g/m*3 18.4 C 0 km/h
321 28-03-2011 17:03:01 16.9 C 2.88 g/m*3 16.9 C 0 km/h
322 28-03-2011 17:15:01 18.4 C 3.15 g/m*3 18.4 C 0 km/h
323 28-03-2011 17:27:01 19.2 C 3.3 g/m*3 19.2 C 0 km/h
324 28-03-2011 17:39:01 18.5 C 3.16 g/m*3 18.5 C 0 km/h
325 28-03-2011 17:51:02 16.7 C 2.84 g/m*3 16.7 C 0 km/h
Sensor: Nr:Datum:Temp:Abs-Feuchte:Windchill:Wind:
Aussen-T/F 326 28-03-2011 18:03:02 16.7 C 2.84 g/m*3 16.7 C 0 km/h
327 28-03-2011 18:15:02 17.1 C 2.91 g/m*3 17.1 C 0 km/h
328 28-03-2011 18:27:02 16.4 C 2.79 g/m*3 16.4 C 0 km/h
329 28-03-2011 18:39:02 15.5 C 2.64 g/m*3 15.5 C 0 km/h
330 28-03-2011 18:51:02 14.9 C 2.55 g/m*3 14.9 C 0 km/h
331 28-03-2011 19:03:02 14.6 C 2.5 g/m*3 14.6 C 0 km/h
332 28-03-2011 19:15:01 13.5 C 2.46 g/m*3 13.5 C 0 km/h
333 28-03-2011 19:27:01 12.8 C 2.8 g/m*3 12.8 C 0 km/h
334 28-03-2011 19:39:02 11.2 C 3.04 g/m*3 11.2 C 0 km/h
335 28-03-2011 19:51:02 9.8 C 3.34 g/m*3 9.8 C 0 km/h
336 28-03-2011 20:03:02 9.6 C 3.3 g/m*3 9.6 C 0 km/h
337 28-03-2011 20:15:02 9 C 3.26 g/m*3 9 C 0 km/h
338 28-03-2011 20:27:02 9.6 C 3.21 g/m*3 9.6 C 0 km/h
339 28-03-2011 20:39:02 9.5 C 3.09 g/m*3 9.5 C 0 km/h
340 28-03-2011 20:51:02 9.2 C 3.21 g/m*3 9.2 C 0 km/h
341 28-03-2011 21:03:02 7.8 C 3.51 g/m*3 7.8 C 0 km/h
342 28-03-2011 21:15:02 7.1 C 3.67 g/m*3 7.1 C 0 km/h
343 28-03-2011 21:27:02 6.9 C 3.77 g/m*3 6.9 C 0 km/h
344 28-03-2011 21:39:02 6.5 C 3.67 g/m*3 6.5 C 0 km/h
345 28-03-2011 21:51:02 6.2 C 3.75 g/m*3 6.2 C 0 km/h
346 28-03-2011 22:03:02 5.6 C 3.68 g/m*3 5.6 C 0 km/h
347 28-03-2011 22:15:02 5.8 C 3.72 g/m*3 5.8 C 0 km/h
348 28-03-2011 22:27:02 6.2 C 3.75 g/m*3 6.2 C 0 km/h
349 28-03-2011 22:39:02 5.6 C 3.82 g/m*3 5.6 C 0 km/h
350 28-03-2011 22:51:02 5.3 C 4.02 g/m*3 5.3 C 0 km/h
Sensor: Nr:Datum:Temp:Abs-Feuchte:Windchill:Wind:
Aussen-T/F 351 28-03-2011 23:03:01 4.7 C 3.93 g/m*3 4.7 C 0 km/h
352 28-03-2011 23:15:02 4.4 C 4.05 g/m*3 4.4 C 0 km/h
353 28-03-2011 23:27:02 3.3 C 3.88 g/m*3 3.3 C 0 km/h
354 28-03-2011 23:39:02 2.9 C 4.02 g/m*3 2.9 C 0 km/h
355 28-03-2011 23:51:02 2.3 C 3.91 g/m*3 2.3 C 0 km/h

Legende:
   Min
   Max


Maximal/Minimal-Werte vom 23.02.2003 - 29.09.2020

Sensor Min Max Avg
Temp
(Aussen-T/F)
-16.4 °C
20-12-2009  01:30:01
40.4 °C
25-07-2019  16:20:00
11.32 °C

Die Daten stammen von einer Davis Vantage Pro 2 Wetter-Station und werden unter Linux mit der Software wview2wettercgi und aufbereitet. Alle Angaben erfolgen ohne Gewähr für ihre Vollständigkeit oder Richtigkeit.
Kontakt: Rainer Krienke krienke@uni-koblenz.de . Meine Webseiten an der Uni Koblenz oder privat.
Version: $Revision: 0.78 $